createdAt,value
2023-05-02T00:00:26.868Z,13.11
2023-05-02T00:01:28.666Z,13.08
2023-05-02T00:02:32.886Z,13.07
2023-05-02T00:03:35.101Z,13.03
2023-05-02T00:04:38.051Z,12.99
2023-05-02T00:05:40.646Z,12.97
2023-05-02T00:06:43.486Z,12.94
2023-05-02T00:07:45.573Z,12.94
2023-05-02T00:08:49.911Z,12.92
2023-05-02T00:09:51.618Z,12.90
2023-05-02T00:10:54.471Z,12.87
2023-05-02T00:11:56.159Z,12.88
2023-05-02T00:12:58.862Z,12.84
2023-05-02T00:14:00.581Z,12.82
2023-05-02T00:15:03.270Z,12.80
2023-05-02T00:16:05.767Z,12.77
2023-05-02T00:17:08.537Z,12.71
2023-05-02T00:18:11.966Z,12.69
2023-05-02T00:19:14.789Z,12.64
2023-05-02T00:20:16.476Z,12.57
2023-05-02T00:21:19.151Z,12.56
2023-05-02T00:22:20.838Z,12.53
2023-05-02T00:23:23.907Z,12.48
2023-05-02T00:24:26.823Z,12.45
2023-05-02T00:25:29.652Z,12.40
2023-05-02T00:26:31.333Z,12.39
2023-05-02T00:27:34.529Z,12.38
2023-05-02T00:28:36.592Z,12.36
2023-05-02T00:29:39.407Z,12.36
2023-05-02T00:30:44.342Z,12.32
2023-05-02T00:31:47.013Z,12.32
2023-05-02T00:32:48.768Z,12.29
2023-05-02T00:33:52.863Z,12.28
2023-05-02T00:34:54.596Z,12.25
2023-05-02T00:35:57.364Z,12.26
2023-05-02T00:36:59.305Z,12.27
2023-05-02T00:38:02.007Z,12.24
2023-05-02T00:39:04.302Z,12.26
2023-05-02T00:40:08.473Z,12.23
2023-05-02T00:41:10.803Z,12.23
2023-05-02T00:42:13.438Z,12.20
2023-05-02T00:43:15.697Z,12.21
2023-05-02T00:44:18.526Z,12.20
2023-05-02T00:45:20.332Z,12.19
2023-05-02T00:46:23.127Z,12.16
2023-05-02T00:47:25.037Z,12.16
2023-05-02T00:48:27.993Z,12.17
2023-05-02T00:49:31.182Z,12.16
2023-05-02T00:50:33.943Z,12.17
2023-05-02T00:51:35.677Z,12.16
2023-05-02T00:52:38.784Z,12.18
2023-05-02T00:53:40.976Z,12.16
2023-05-02T00:54:44.931Z,12.17
2023-05-02T00:55:46.997Z,12.16
2023-05-02T00:56:49.679Z,12.16
2023-05-02T00:57:51.504Z,12.17
2023-05-02T00:58:54.922Z,12.19
2023-05-02T00:59:57.407Z,12.20
2023-05-02T01:01:15.992Z,12.22
2023-05-02T01:02:28.895Z,12.21
2023-05-02T01:03:38.093Z,12.22
2023-05-02T01:04:51.047Z,12.23
2023-05-02T01:06:00.624Z,12.23
2023-05-02T01:07:13.286Z,12.23
2023-05-02T01:08:21.297Z,12.21
2023-05-02T01:09:34.067Z,12.20
2023-05-02T01:10:50.036Z,12.17
2023-05-02T01:11:57.054Z,12.14
2023-05-02T01:13:03.847Z,12.12
2023-05-02T01:14:06.182Z,12.10
2023-05-02T01:15:11.469Z,12.07
2023-05-02T01:16:14.654Z,12.07
2023-05-02T01:17:18.279Z,12.04
2023-05-02T01:18:22.896Z,12.01
2023-05-02T01:19:27.662Z,11.99
2023-05-02T01:20:31.379Z,11.95
2023-05-02T01:21:34.717Z,11.91
2023-05-02T01:22:38.549Z,11.87
2023-05-02T01:23:52.693Z,11.84
2023-05-02T01:25:00.690Z,11.83
2023-05-02T01:26:11.762Z,11.80
2023-05-02T01:27:19.064Z,11.77
2023-05-02T01:28:30.349Z,11.74
2023-05-02T01:29:33.586Z,11.73
2023-05-02T01:30:39.722Z,11.71
2023-05-02T01:31:43.466Z,11.70
2023-05-02T01:32:47.749Z,11.68
2023-05-02T01:33:50.321Z,11.69
2023-05-02T01:34:54.253Z,11.68
2023-05-02T01:35:56.350Z,11.66
2023-05-02T01:36:59.963Z,11.65
2023-05-02T01:38:03.295Z,11.63
2023-05-02T01:39:07.437Z,11.63
2023-05-02T01:40:10.484Z,11.62
2023-05-02T01:41:14.208Z,11.60
2023-05-02T01:42:16.843Z,11.59
2023-05-02T01:43:21.525Z,11.59
2023-05-02T01:44:24.429Z,11.57
2023-05-02T01:45:29.283Z,11.57
2023-05-02T01:46:33.330Z,11.58
2023-05-02T01:47:37.158Z,11.58
2023-05-02T01:48:39.279Z,11.59
2023-05-02T01:49:42.621Z,11.59
2023-05-02T01:50:45.564Z,11.60
2023-05-02T01:51:49.460Z,11.62
2023-05-02T01:52:52.768Z,11.62
2023-05-02T01:53:55.472Z,11.62
2023-05-02T01:54:58.254Z,11.63
2023-05-02T01:56:01.595Z,11.63
2023-05-02T01:57:06.298Z,11.64
2023-05-02T01:58:09.067Z,11.61
2023-05-02T01:59:11.789Z,11.60
2023-05-02T02:00:15.333Z,11.57
2023-05-02T02:01:18.646Z,11.55
2023-05-02T02:02:22.336Z,11.51
2023-05-02T02:03:24.728Z,11.49
2023-05-02T02:04:27.711Z,11.48
2023-05-02T02:05:29.826Z,11.46
2023-05-02T02:06:32.625Z,11.43
2023-05-02T02:07:34.403Z,11.43
2023-05-02T02:08:37.310Z,11.41
2023-05-02T02:09:39.259Z,11.42
2023-05-02T02:10:44.879Z,11.43
2023-05-02T02:11:49.573Z,11.44
2023-05-02T02:12:53.840Z,11.44
2023-05-02T02:14:00.509Z,11.44
2023-05-02T02:15:07.944Z,11.44
2023-05-02T02:16:11.692Z,11.43
2023-05-02T02:17:19.488Z,11.42
2023-05-02T02:18:25.271Z,11.39
2023-05-02T02:19:28.621Z,11.37
2023-05-02T02:20:31.961Z,11.37
2023-05-02T02:21:35.636Z,11.36
2023-05-02T02:22:39.154Z,11.36
2023-05-02T02:23:44.029Z,11.37
2023-05-02T02:24:46.909Z,11.36
2023-05-02T02:25:50.335Z,11.37
2023-05-02T02:26:52.197Z,11.35
2023-05-02T02:27:55.002Z,11.35
2023-05-02T02:28:56.718Z,11.34
2023-05-02T02:29:59.692Z,11.32
2023-05-02T02:31:02.632Z,11.33
2023-05-02T02:32:05.539Z,11.32
2023-05-02T02:33:08.930Z,11.32
2023-05-02T02:34:11.710Z,11.33
2023-05-02T02:35:13.528Z,11.32
2023-05-02T02:36:21.474Z,11.32
2023-05-02T02:37:26.662Z,11.31
2023-05-02T02:38:33.598Z,11.31
2023-05-02T02:39:41.967Z,11.28
2023-05-02T02:40:47.267Z,11.27
2023-05-02T02:41:54.152Z,11.27
2023-05-02T02:43:01.570Z,11.25
2023-05-02T02:44:06.878Z,11.24
2023-05-02T02:45:17.897Z,11.20
2023-05-02T02:46:31.696Z,11.17
2023-05-02T02:47:37.376Z,11.12
2023-05-02T02:48:46.551Z,11.10
2023-05-02T02:49:50.884Z,11.06
2023-05-02T02:51:01.217Z,11.03
2023-05-02T02:52:06.470Z,10.99
2023-05-02T02:53:10.889Z,10.97
2023-05-02T02:54:25.933Z,10.95
2023-05-02T02:55:38.501Z,10.94
2023-05-02T02:56:42.259Z,10.93
2023-05-02T02:57:49.555Z,10.93
2023-05-02T02:58:56.866Z,10.92
2023-05-02T03:00:02.934Z,10.91
2023-05-02T03:01:06.784Z,10.89
2023-05-02T03:02:11.217Z,10.88
2023-05-02T03:03:14.538Z,10.88
2023-05-02T03:04:20.244Z,10.87
2023-05-02T03:05:22.781Z,10.85
2023-05-02T03:06:26.117Z,10.85
2023-05-02T03:07:28.247Z,10.85
2023-05-02T03:08:40.162Z,10.84
2023-05-02T03:09:42.410Z,10.83
2023-05-02T03:10:45.085Z,10.83
2023-05-02T03:11:46.828Z,10.81
2023-05-02T03:12:49.606Z,10.79
2023-05-02T03:13:52.764Z,10.79
2023-05-02T03:15:00.483Z,10.77
2023-05-02T03:16:34.662Z,10.73
2023-05-02T03:17:37.461Z,10.67
2023-05-02T03:18:40.449Z,10.64
2023-05-02T03:19:44.476Z,10.62
2023-05-02T03:20:46.218Z,10.57
2023-05-02T03:21:49.009Z,10.56
2023-05-02T03:22:50.734Z,10.55
2023-05-02T03:23:53.650Z,10.54
2023-05-02T03:24:56.322Z,10.53
2023-05-02T03:25:58.123Z,10.54
2023-05-02T03:27:00.915Z,10.54
2023-05-02T03:28:02.767Z,10.54
2023-05-02T03:29:05.467Z,10.55
2023-05-02T03:30:08.511Z,10.54
2023-05-02T03:31:11.223Z,10.56
2023-05-02T03:32:14.043Z,10.54
2023-05-02T03:33:15.859Z,10.54
2023-05-02T03:34:19.738Z,10.53
2023-05-02T03:35:23.054Z,10.53
2023-05-02T03:36:25.812Z,10.53
2023-05-02T03:37:27.486Z,10.52
2023-05-02T03:38:30.761Z,10.48
2023-05-02T03:39:32.490Z,10.47
2023-05-02T03:40:35.223Z,10.45
2023-05-02T03:41:37.048Z,10.45
2023-05-02T03:42:41.383Z,10.42
2023-05-02T03:43:43.053Z,10.40
2023-05-02T03:44:45.801Z,10.39
2023-05-02T03:45:48.743Z,10.39
2023-05-02T03:46:51.774Z,10.38
2023-05-02T03:47:53.617Z,10.37
2023-05-02T03:48:56.426Z,10.38
2023-05-02T03:49:59.319Z,10.38
2023-05-02T03:51:04.487Z,10.39
2023-05-02T03:52:06.249Z,10.38
2023-05-02T03:53:10.095Z,10.39
2023-05-02T03:54:11.846Z,10.40
2023-05-02T03:55:15.145Z,10.37
2023-05-02T03:56:20.172Z,10.36
2023-05-02T03:57:23.059Z,10.33
2023-05-02T03:58:25.583Z,10.30
2023-05-02T03:59:28.745Z,10.28
2023-05-02T04:00:31.607Z,10.26
2023-05-02T04:01:34.382Z,10.22
2023-05-02T04:02:36.368Z,10.19
2023-05-02T04:03:39.269Z,10.20
2023-05-02T04:04:41.170Z,10.19
2023-05-02T04:05:44.352Z,10.18
2023-05-02T04:06:47.521Z,10.19
2023-05-02T04:07:50.257Z,10.20
2023-05-02T04:08:51.904Z,10.22
2023-05-02T04:09:54.775Z,10.26
2023-05-02T04:10:57.561Z,10.30
2023-05-02T04:11:59.365Z,10.33
2023-05-02T04:13:03.082Z,10.39
2023-05-02T04:14:04.797Z,10.40
2023-05-02T04:15:08.564Z,10.44
2023-05-02T04:16:10.330Z,10.44
2023-05-02T04:17:13.632Z,10.44
2023-05-02T04:18:15.544Z,10.43
2023-05-02T04:19:19.120Z,10.43
2023-05-02T04:20:20.862Z,10.43
2023-05-02T04:21:23.545Z,10.42
2023-05-02T04:22:29.521Z,10.41
2023-05-02T04:23:32.240Z,10.41
2023-05-02T04:24:33.999Z,10.43
2023-05-02T04:25:36.707Z,10.43
2023-05-02T04:26:38.432Z,10.42
2023-05-02T04:27:41.095Z,10.44
2023-05-02T04:28:42.824Z,10.44
2023-05-02T04:29:45.592Z,10.45
2023-05-02T04:30:47.372Z,10.46
2023-05-02T04:31:50.921Z,10.48
2023-05-02T04:32:53.547Z,10.50
2023-05-02T04:33:56.301Z,10.52
2023-05-02T04:34:58.028Z,10.55
2023-05-02T04:36:01.185Z,10.56
2023-05-02T04:37:03.132Z,10.56
2023-05-02T04:38:07.249Z,10.54
2023-05-02T04:39:10.237Z,10.54
2023-05-02T04:40:13.024Z,10.55
2023-05-02T04:41:16.198Z,10.53
2023-05-02T04:42:17.978Z,10.54
2023-05-02T04:43:22.463Z,10.55
2023-05-02T04:44:26.190Z,10.54
2023-05-02T04:45:28.939Z,10.54
2023-05-02T04:46:30.836Z,10.54
2023-05-02T04:47:33.583Z,10.55
2023-05-02T04:48:35.355Z,10.52
2023-05-02T04:49:38.055Z,10.49
2023-05-02T04:50:41.059Z,10.47
2023-05-02T04:51:43.900Z,10.45
2023-05-02T04:52:45.658Z,10.44
2023-05-02T04:53:50.353Z,10.42
2023-05-02T04:54:52.396Z,10.38
2023-05-02T04:55:55.062Z,10.37
2023-05-02T04:56:57.711Z,10.36
2023-05-02T04:57:59.398Z,10.39
2023-05-02T04:59:02.110Z,10.38
2023-05-02T05:00:04.471Z,10.38
2023-05-02T05:01:07.233Z,10.37
2023-05-02T05:02:12.582Z,10.37
2023-05-02T05:03:15.539Z,10.40
2023-05-02T05:04:17.561Z,10.37
2023-05-02T05:05:20.389Z,10.41
2023-05-02T05:06:22.710Z,10.41
2023-05-02T05:07:25.673Z,10.44
2023-05-02T05:08:27.487Z,10.45
2023-05-02T05:09:31.550Z,10.47
2023-05-02T05:10:33.271Z,10.49
2023-05-02T05:11:36.055Z,10.49
2023-05-02T05:12:37.778Z,10.52
2023-05-02T05:13:40.519Z,10.54
2023-05-02T05:14:42.325Z,10.55
2023-05-02T05:15:45.358Z,10.54
2023-05-02T05:16:47.282Z,10.57
2023-05-02T05:17:50.084Z,10.58
2023-05-02T05:18:53.846Z,10.62
2023-05-02T05:19:56.581Z,10.65
2023-05-02T05:20:58.273Z,10.66
2023-05-02T05:22:01.048Z,10.68
2023-05-02T05:23:02.761Z,10.71
2023-05-02T05:24:06.268Z,10.74
2023-05-02T05:25:10.547Z,10.72
2023-05-02T05:26:15.258Z,10.72
2023-05-02T05:27:17.066Z,10.75
2023-05-02T05:28:19.851Z,10.76
2023-05-02T05:29:21.576Z,10.76
2023-05-02T05:30:25.494Z,10.77
2023-05-02T05:31:27.296Z,10.79
2023-05-02T05:32:30.077Z,10.80
2023-05-02T05:33:32.059Z,10.81
2023-05-02T05:34:34.735Z,10.83
2023-05-02T05:35:36.568Z,10.85
2023-05-02T05:36:41.051Z,10.87
2023-05-02T05:37:44.583Z,10.92
2023-05-02T05:38:46.373Z,10.93
2023-05-02T05:39:49.357Z,10.95
2023-05-02T05:40:52.464Z,10.95
2023-05-02T05:41:55.179Z,10.97
2023-05-02T05:42:56.928Z,10.94
2023-05-02T05:43:59.623Z,10.97
2023-05-02T05:45:01.356Z,11.00
2023-05-02T05:46:04.252Z,11.01
2023-05-02T05:47:06.001Z,11.02
2023-05-02T05:48:08.779Z,11.03
2023-05-02T05:49:10.610Z,11.06
2023-05-02T05:50:13.320Z,11.05
2023-05-02T05:51:15.081Z,11.03
2023-05-02T05:52:17.753Z,10.99
2023-05-02T05:53:19.645Z,10.97
2023-05-02T05:54:22.355Z,10.96
2023-05-02T05:55:24.135Z,10.98
2023-05-02T05:56:28.201Z,10.99
2023-05-02T05:57:30.148Z,11.00
2023-05-02T05:58:32.871Z,11.01
2023-05-02T05:59:37.583Z,11.05
2023-05-02T06:00:40.784Z,11.01
2023-05-02T06:01:42.821Z,11.05
2023-05-02T06:02:45.576Z,11.10
2023-05-02T06:03:47.624Z,11.14
2023-05-02T06:04:50.628Z,11.18
2023-05-02T06:05:52.533Z,11.19
2023-05-02T06:06:55.369Z,11.22
2023-05-02T06:07:57.390Z,11.26
2023-05-02T06:09:00.100Z,11.29
2023-05-02T06:10:02.102Z,11.37
2023-05-02T06:11:05.399Z,11.37
2023-05-02T06:12:08.433Z,11.38
2023-05-02T06:13:11.247Z,11.44
2023-05-02T06:14:12.938Z,11.49
2023-05-02T06:15:15.960Z,11.53
2023-05-02T06:16:18.226Z,11.53
2023-05-02T06:17:20.892Z,11.59
2023-05-02T06:18:22.666Z,11.63
2023-05-02T06:19:25.512Z,11.65
2023-05-02T06:20:28.381Z,11.70
2023-05-02T06:21:31.392Z,11.68
2023-05-02T06:22:33.051Z,11.70
2023-05-02T06:23:35.782Z,11.72
2023-05-02T06:24:38.471Z,11.72
2023-05-02T06:25:40.134Z,11.77
2023-05-02T06:26:42.845Z,11.79
2023-05-02T06:27:46.918Z,11.84
2023-05-02T06:28:48.607Z,11.84
2023-05-02T06:29:52.395Z,11.87
2023-05-02T06:30:57.882Z,11.91
2023-05-02T06:32:00.729Z,11.96
2023-05-02T06:33:04.552Z,12.00
2023-05-02T06:34:07.853Z,12.02
2023-05-02T06:35:10.206Z,12.05
2023-05-02T06:36:12.897Z,12.05
2023-05-02T06:37:14.690Z,12.05
2023-05-02T06:38:18.511Z,12.04
2023-05-02T06:39:20.199Z,12.07
2023-05-02T06:40:22.899Z,12.10
2023-05-02T06:41:25.530Z,12.10
2023-05-02T06:42:27.215Z,12.13
2023-05-02T06:43:31.281Z,12.12
2023-05-02T06:44:33.013Z,12.14
2023-05-02T06:45:35.701Z,12.16
2023-05-02T06:46:37.435Z,12.19
2023-05-02T06:47:40.227Z,12.20
2023-05-02T06:48:43.025Z,12.20
2023-05-02T06:49:44.762Z,12.15
2023-05-02T06:50:47.434Z,12.17
2023-05-02T06:51:50.255Z,12.19
2023-05-02T06:52:52.014Z,12.22
2023-05-02T06:53:54.688Z,12.24
2023-05-02T06:54:56.374Z,12.22
2023-05-02T06:55:59.144Z,12.26
2023-05-02T06:57:02.180Z,12.30
2023-05-02T06:58:03.909Z,12.36
2023-05-02T06:59:08.028Z,12.38
2023-05-02T07:00:11.004Z,12.39
2023-05-02T07:01:13.726Z,12.41
2023-05-02T07:02:15.431Z,12.42
2023-05-02T07:03:18.155Z,12.40
2023-05-02T07:04:20.029Z,12.45
2023-05-02T07:05:22.803Z,12.44
2023-05-02T07:06:24.745Z,12.43
2023-05-02T07:07:27.507Z,12.43
2023-05-02T07:08:30.195Z,12.43
2023-05-02T07:09:31.956Z,12.47
2023-05-02T07:10:34.883Z,12.47
2023-05-02T07:11:36.653Z,12.49
2023-05-02T07:12:40.070Z,12.51
2023-05-02T07:13:41.786Z,12.54
2023-05-02T07:14:46.891Z,12.57
2023-05-02T07:15:48.746Z,12.54
2023-05-02T07:16:51.535Z,12.58
2023-05-02T07:17:53.767Z,12.62
2023-05-02T07:18:56.540Z,12.64
2023-05-02T07:19:59.617Z,12.68
2023-05-02T07:21:02.467Z,12.73
2023-05-02T07:22:05.383Z,12.79
2023-05-02T07:23:07.132Z,12.85
2023-05-02T07:24:09.814Z,12.88
2023-05-02T07:25:11.830Z,12.94
2023-05-02T07:26:14.512Z,12.98
2023-05-02T07:27:16.172Z,13.00
2023-05-02T07:28:18.987Z,13.05
2023-05-02T07:29:20.669Z,13.06
2023-05-02T07:30:24.925Z,13.06
2023-05-02T07:31:26.870Z,13.08
2023-05-02T07:32:29.618Z,13.13
2023-05-02T07:33:32.431Z,13.16
2023-05-02T07:34:34.148Z,13.18
2023-05-02T07:35:36.838Z,13.26
2023-05-02T07:36:39.392Z,13.28
2023-05-02T07:37:42.126Z,13.30
2023-05-02T07:38:43.843Z,13.32
2023-05-02T07:39:46.572Z,13.36
2023-05-02T07:40:49.244Z,13.42
2023-05-02T07:41:52.399Z,13.43
2023-05-02T07:42:55.128Z,13.46
2023-05-02T07:43:58.309Z,13.51
2023-05-02T07:45:00.308Z,13.58
2023-05-02T07:46:09.305Z,13.65
2023-05-02T07:47:12.046Z,13.67
2023-05-02T07:48:14.767Z,13.74
2023-05-02T07:49:16.515Z,13.80
2023-05-02T07:50:19.364Z,13.84
2023-05-02T07:51:21.616Z,13.90
2023-05-02T07:52:24.318Z,13.94
2023-05-02T07:53:26.302Z,14.01
2023-05-02T07:54:28.982Z,14.05
2023-05-02T07:55:33.210Z,14.08
2023-05-02T07:56:36.196Z,14.07
2023-05-02T07:57:38.937Z,14.07
2023-05-02T07:58:41.650Z,14.09
2023-05-02T07:59:44.296Z,14.11
2023-05-02T08:00:46.745Z,14.16
2023-05-02T08:01:50.815Z,14.20
2023-05-02T08:02:53.722Z,14.23
2023-05-02T08:03:56.770Z,14.33
2023-05-02T08:04:59.713Z,14.39
2023-05-02T08:06:04.005Z,14.44
2023-05-02T08:07:05.767Z,14.49
2023-05-02T08:08:08.588Z,14.55
2023-05-02T08:09:11.225Z,14.62
2023-05-02T08:10:13.923Z,14.70
2023-05-02T08:11:16.707Z,14.66
2023-05-02T08:12:19.381Z,14.67
2023-05-02T08:13:21.221Z,14.68
2023-05-02T08:14:23.881Z,14.65
2023-05-02T08:15:25.797Z,14.67
2023-05-02T08:16:28.594Z,14.66
2023-05-02T08:17:31.951Z,14.55
2023-05-02T08:18:34.666Z,14.47
2023-05-02T08:19:36.356Z,14.36
2023-05-02T08:20:39.048Z,14.29
2023-05-02T08:21:42.429Z,14.26
2023-05-02T08:22:44.143Z,14.13
2023-05-02T08:23:47.277Z,13.98
2023-05-02T08:24:49.982Z,13.92
2023-05-02T08:25:52.751Z,13.82
2023-05-02T08:26:54.443Z,13.79
2023-05-02T08:27:57.237Z,13.77
2023-05-02T08:29:01.057Z,13.76
2023-05-02T08:30:03.295Z,13.73
2023-05-02T08:31:06.508Z,13.66
2023-05-02T08:32:09.401Z,13.63
2023-05-02T08:33:13.540Z,13.64
2023-05-02T08:34:15.348Z,13.62
2023-05-02T08:35:18.239Z,13.66
2023-05-02T08:36:19.939Z,13.64
2023-05-02T08:37:22.751Z,13.67
2023-05-02T08:38:25.498Z,13.69
2023-05-02T08:39:28.122Z,13.77
2023-05-02T08:40:41.425Z,13.79
2023-05-02T08:41:45.591Z,13.79
2023-05-02T08:42:48.311Z,13.79
2023-05-02T08:43:50.030Z,13.79
2023-05-02T08:44:52.810Z,13.75
2023-05-02T08:45:55.673Z,13.73
2023-05-02T08:46:57.689Z,13.69
2023-05-02T08:48:01.233Z,13.67
2023-05-02T08:49:06.766Z,13.67
2023-05-02T08:50:09.403Z,13.54
2023-05-02T08:51:15.303Z,13.52
2023-05-02T08:52:17.930Z,13.46
2023-05-02T08:53:21.147Z,13.44
2023-05-02T08:54:25.844Z,13.34
2023-05-02T08:55:27.713Z,13.36
2023-05-02T08:56:30.785Z,13.32
2023-05-02T08:57:33.543Z,13.36
2023-05-02T08:58:36.666Z,13.38
2023-05-02T08:59:39.413Z,13.43
2023-05-02T09:00:42.174Z,13.46
2023-05-02T09:01:47.586Z,13.49
2023-05-02T09:02:57.227Z,13.45
2023-05-02T09:04:00.002Z,13.49
2023-05-02T09:05:07.573Z,13.55
2023-05-02T09:06:12.842Z,13.58
2023-05-02T09:07:15.757Z,13.64
2023-05-02T09:08:22.368Z,13.68
2023-05-02T09:09:25.500Z,13.64
2023-05-02T09:10:29.804Z,13.68
2023-05-02T09:11:32.461Z,13.70
2023-05-02T09:12:34.144Z,13.72
2023-05-02T09:13:38.419Z,13.71
2023-05-02T09:14:41.106Z,13.64
2023-05-02T09:15:42.904Z,13.65
2023-05-02T09:16:45.774Z,13.67
2023-05-02T09:17:48.322Z,13.62
2023-05-02T09:18:52.819Z,13.68
2023-05-02T09:20:01.322Z,13.73
2023-05-02T09:21:08.916Z,13.75
2023-05-02T09:22:11.876Z,13.77
2023-05-02T09:23:14.203Z,13.78
2023-05-02T09:24:18.069Z,13.79
2023-05-02T09:25:19.970Z,13.77
2023-05-02T09:26:23.715Z,13.83
2023-05-02T09:27:26.205Z,13.87
2023-05-02T09:28:43.175Z,13.93
2023-05-02T09:29:47.049Z,13.91
2023-05-02T09:30:49.901Z,13.97
2023-05-02T09:31:56.180Z,13.95
2023-05-02T09:32:59.389Z,13.96
2023-05-02T09:34:10.108Z,13.99
2023-05-02T09:35:13.553Z,14.00
2023-05-02T09:36:20.091Z,13.97
2023-05-02T09:37:35.190Z,14.03
2023-05-02T09:38:38.871Z,14.03
2023-05-02T09:39:41.671Z,14.11
2023-05-02T09:40:54.596Z,14.18
2023-05-02T09:41:58.108Z,14.26
2023-05-02T09:42:59.850Z,14.31
2023-05-02T09:44:02.557Z,14.38
2023-05-02T09:45:05.064Z,14.36
2023-05-02T09:46:09.229Z,14.43
2023-05-02T09:47:11.082Z,14.51
2023-05-02T09:48:15.128Z,14.56
2023-05-02T09:49:20.069Z,14.67
2023-05-02T09:50:35.029Z,14.74
2023-05-02T09:51:39.461Z,14.78
2023-05-02T09:52:42.224Z,14.87
2023-05-02T09:53:45.497Z,14.96
2023-05-02T09:54:50.562Z,15.01
2023-05-02T09:56:01.210Z,15.10
2023-05-02T09:57:04.636Z,15.19
2023-05-02T09:58:06.623Z,15.25
2023-05-02T09:59:16.338Z,15.30
2023-05-02T10:00:20.053Z,15.32
2023-05-02T10:01:22.716Z,15.35
2023-05-02T10:02:24.904Z,15.41
2023-05-02T10:03:31.870Z,15.49
2023-05-02T10:04:38.840Z,15.57
2023-05-02T10:05:40.986Z,15.64
2023-05-02T10:06:45.421Z,15.72
2023-05-02T10:07:47.464Z,15.79
2023-05-02T10:08:50.303Z,15.88
2023-05-02T10:09:53.086Z,15.95
2023-05-02T10:10:57.072Z,16.03
2023-05-02T10:12:04.924Z,16.06
2023-05-02T10:13:08.933Z,16.13
2023-05-02T10:14:12.916Z,16.18
2023-05-02T10:15:16.318Z,16.26
2023-05-02T10:16:25.014Z,16.30
2023-05-02T10:17:29.813Z,16.32
2023-05-02T10:18:40.017Z,16.34
2023-05-02T10:19:46.592Z,16.30
2023-05-02T10:20:58.018Z,16.34
2023-05-02T10:22:03.005Z,16.36
2023-05-02T10:23:05.074Z,16.38
2023-05-02T10:24:07.870Z,16.41
2023-05-02T10:25:09.834Z,16.43
2023-05-02T10:26:16.070Z,16.46
2023-05-02T10:27:17.876Z,16.49
2023-05-02T10:28:20.900Z,16.51
2023-05-02T10:29:23.676Z,16.52
2023-05-02T10:30:25.904Z,16.58
2023-05-02T10:31:29.420Z,16.61
2023-05-02T10:32:33.828Z,16.66
2023-05-02T10:33:36.780Z,16.75
2023-05-02T10:34:39.345Z,16.86
2023-05-02T10:35:45.669Z,16.95
2023-05-02T10:36:49.013Z,17.02
2023-05-02T10:37:52.596Z,17.09
2023-05-02T10:38:55.998Z,17.16
2023-05-02T10:39:59.029Z,17.21
2023-05-02T10:41:03.128Z,17.20
2023-05-02T10:42:06.155Z,17.16
2023-05-02T10:43:09.086Z,17.08
2023-05-02T10:44:11.031Z,17.04
2023-05-02T10:45:14.648Z,17.00
2023-05-02T10:46:31.650Z,17.00
2023-05-02T10:47:34.421Z,17.00
2023-05-02T10:48:38.419Z,17.00
2023-05-02T10:49:51.037Z,16.99
2023-05-02T10:50:53.693Z,16.98
2023-05-02T10:51:56.433Z,16.98
2023-05-02T10:52:59.809Z,16.98
2023-05-02T10:54:24.787Z,16.95
2023-05-02T10:55:26.490Z,16.91
2023-05-02T10:56:29.353Z,16.92
2023-05-02T10:57:31.082Z,16.92
2023-05-02T10:58:33.755Z,16.91
2023-05-02T10:59:38.183Z,16.93
2023-05-02T11:00:40.037Z,16.89
2023-05-02T11:01:43.007Z,16.91
2023-05-02T11:02:49.141Z,16.89
2023-05-02T11:03:56.414Z,16.94
2023-05-02T11:05:04.417Z,16.91
2023-05-02T11:06:06.961Z,16.94
2023-05-02T11:07:19.897Z,16.93
2023-05-02T11:08:32.991Z,16.93
2023-05-02T11:09:34.818Z,16.98
2023-05-02T11:10:37.529Z,17.08
2023-05-02T11:11:41.099Z,17.23
2023-05-02T11:12:48.903Z,17.38
2023-05-02T11:13:50.815Z,17.55
2023-05-02T11:14:53.524Z,17.67
2023-05-02T11:15:56.938Z,17.79
2023-05-02T11:17:10.174Z,17.91
2023-05-02T11:18:13.501Z,18.01
2023-05-02T11:19:16.241Z,18.11
2023-05-02T11:20:21.796Z,18.17
2023-05-02T11:21:29.626Z,18.26
2023-05-02T11:22:31.695Z,18.33
2023-05-02T11:23:36.984Z,18.41
2023-05-02T11:24:39.726Z,18.51
2023-05-02T11:25:43.506Z,18.59
2023-05-02T11:26:45.225Z,18.66
2023-05-02T11:27:49.338Z,18.74
2023-05-02T11:28:52.740Z,18.84
2023-05-02T11:29:54.975Z,18.99
2023-05-02T11:30:58.044Z,19.16
2023-05-02T11:31:59.849Z,19.35
2023-05-02T11:33:29.624Z,19.61
2023-05-02T11:34:43.533Z,19.74
2023-05-02T11:35:46.821Z,19.81
2023-05-02T11:36:49.536Z,19.86
2023-05-02T11:37:53.711Z,19.84
2023-05-02T11:38:57.736Z,19.76
2023-05-02T11:40:11.699Z,19.57
2023-05-02T11:41:14.486Z,19.42
2023-05-02T11:42:29.368Z,19.22
2023-05-02T11:43:32.740Z,19.11
2023-05-02T11:44:35.785Z,18.99
2023-05-02T11:45:39.178Z,18.87
2023-05-02T11:46:42.278Z,18.88
2023-05-02T11:47:46.200Z,18.94
2023-05-02T11:48:49.915Z,19.02
2023-05-02T11:49:51.871Z,19.08
2023-05-02T11:50:56.404Z,19.15
2023-05-02T11:52:00.138Z,19.23
2023-05-02T11:53:01.931Z,19.33
2023-05-02T11:54:07.694Z,19.43
2023-05-02T11:55:15.868Z,19.52
2023-05-02T11:56:24.690Z,19.63
2023-05-02T11:57:27.917Z,19.63
2023-05-02T11:58:32.735Z,19.72
2023-05-02T11:59:50.828Z,19.77
2023-05-02T12:00:54.498Z,19.80
2023-05-02T12:01:58.146Z,19.83
2023-05-02T12:03:00.062Z,19.90
2023-05-02T12:04:04.047Z,19.99
2023-05-02T12:05:06.694Z,20.09
2023-05-02T12:06:12.282Z,20.18
2023-05-02T12:07:14.472Z,20.29
2023-05-02T12:08:22.633Z,20.40
2023-05-02T12:09:26.942Z,20.51
2023-05-02T12:10:36.497Z,20.68
2023-05-02T12:11:39.188Z,20.81
2023-05-02T12:12:43.962Z,20.97
2023-05-02T12:13:48.796Z,21.11
2023-05-02T12:14:50.758Z,21.25
2023-05-02T12:15:55.079Z,21.32
2023-05-02T12:16:59.509Z,21.41
2023-05-02T12:18:01.502Z,21.45
2023-05-02T12:19:04.799Z,21.43
2023-05-02T12:20:07.969Z,21.28
2023-05-02T12:21:11.036Z,21.20
2023-05-02T12:22:14.504Z,21.12
2023-05-02T12:23:16.454Z,21.08
2023-05-02T12:24:19.287Z,21.06
2023-05-02T12:25:22.384Z,21.08
2023-05-02T12:26:29.549Z,21.11
2023-05-02T12:27:33.293Z,21.14
2023-05-02T12:28:50.433Z,21.19
2023-05-02T12:29:53.166Z,21.21
2023-05-02T12:30:56.016Z,21.21
2023-05-02T12:31:59.923Z,21.17
2023-05-02T12:33:03.681Z,21.08
2023-05-02T12:34:06.491Z,20.99
2023-05-02T12:35:21.580Z,20.87
2023-05-02T12:36:24.349Z,20.74
2023-05-02T12:37:28.357Z,20.59
2023-05-02T12:38:31.173Z,20.47
2023-05-02T12:39:36.651Z,20.39
2023-05-02T12:40:47.003Z,20.22
2023-05-02T12:41:49.653Z,20.11
2023-05-02T12:43:01.252Z,19.99
2023-05-02T12:44:04.308Z,19.77
2023-05-02T12:45:16.936Z,19.64
2023-05-02T12:46:20.167Z,19.60
2023-05-02T12:47:22.715Z,19.59
2023-05-02T12:48:26.833Z,19.60
2023-05-02T12:49:29.483Z,19.60
2023-05-02T12:50:38.106Z,19.70
2023-05-02T12:51:41.760Z,19.70
2023-05-02T12:52:47.519Z,19.72
2023-05-02T12:53:50.403Z,19.90
2023-05-02T12:54:53.301Z,19.93
2023-05-02T12:56:03.782Z,19.93
2023-05-02T12:57:06.577Z,19.85
2023-05-02T12:58:09.223Z,19.93
2023-05-02T12:59:13.177Z,20.02
2023-05-02T13:00:18.162Z,20.05
2023-05-02T13:01:20.877Z,20.04
2023-05-02T13:02:23.871Z,19.99
2023-05-02T13:03:28.240Z,19.86
2023-05-02T13:04:37.591Z,19.67
2023-05-02T13:05:40.355Z,19.53
2023-05-02T13:06:42.600Z,19.56
2023-05-02T13:07:46.080Z,19.64
2023-05-02T13:08:48.745Z,19.73
2023-05-02T13:09:50.430Z,19.76
2023-05-02T13:10:53.207Z,19.75
2023-05-02T13:11:57.092Z,19.77
2023-05-02T13:12:59.763Z,19.90
2023-05-02T13:14:04.166Z,20.00
2023-05-02T13:15:08.444Z,19.96
2023-05-02T13:16:11.451Z,20.00
2023-05-02T13:17:13.383Z,19.97
2023-05-02T13:18:16.274Z,19.93
2023-05-02T13:19:19.011Z,19.85
2023-05-02T13:20:22.024Z,19.75
2023-05-02T13:21:24.802Z,19.60
2023-05-02T13:22:26.856Z,19.44
2023-05-02T13:23:29.544Z,19.38
2023-05-02T13:24:31.244Z,19.41
2023-05-02T13:25:33.931Z,19.37
2023-05-02T13:26:35.649Z,19.28
2023-05-02T13:27:41.032Z,19.34
2023-05-02T13:28:43.723Z,19.42
2023-05-02T13:29:46.066Z,19.48
2023-05-02T13:30:48.985Z,19.42
2023-05-02T13:31:50.764Z,19.45
2023-05-02T13:32:53.794Z,19.46
2023-05-02T13:33:55.785Z,19.56
2023-05-02T13:34:58.548Z,19.56
2023-05-02T13:36:00.492Z,19.50
2023-05-02T13:37:03.152Z,19.45
2023-05-02T13:38:04.840Z,19.32
2023-05-02T13:39:07.672Z,19.28
2023-05-02T13:40:09.953Z,19.35
2023-05-02T13:41:12.705Z,19.48
2023-05-02T13:42:14.434Z,19.57